PWSweather.com
Personal Weather Stations
Station Observations
LW1DRJ
MorenoAR 17441

MorenoAR 17441

Lat: -34.6340099, Lon: -58.791382

Elevation: 19

Station Type: Fine Offset

http://www.lw1drj.com.ar/clima

High Low Average
Temperature 56.7°F13.7°C 45.0°F7.2°C 50.5°F10.3°C
Dew Point 56.4°F13.6°C 42.2°F5.7°C 49.8°F9.9°C
Winds 13.6 mph 21.9 kmh 0.7 mph 1.1 kmh 5.0 mph SE8.0 kmh SE
Wind Gusts 27.3 mph43.9 kmh 5.4 mph8.7 kmh 12.0 mph19.3 kmh
Humidity 99% 88% 97%
Pressure 30.38 in1028.8 mb 30.06 in1017.9 mb -
Precipitation 0.02 in0.5 mm - -
Hour Temp Dew Point Humidity Winds Wind Gusts Pressure Precip Precip Rate Daily Precip Total
12:08 AM 45.5°F7.5°C 42.2°F5.7°C 88% 5.4 mph S8.7 kmh S 10.7 mph17.2 kmh 30.37 in1028.4 mb 0.00 in0.0 mm 0.00 in0.0 mm 0.00 in0.0 mm
12:18 AM 46.0°F7.8°C 43.0°F6.1°C 89% 5.4 mph E8.7 kmh E 10.7 mph17.2 kmh 30.37 in1028.4 mb 0.00 in0.0 mm 0.00 in0.0 mm 0.00 in0.0 mm
12:28 AM 46.2°F7.9°C 43.2°F6.2°C 89% 9.2 mph S14.8 kmh S 13.6 mph21.9 kmh 30.37 in1028.4 mb 0.00 in0.0 mm 0.00 in0.0 mm 0.00 in0.0 mm
12:38 AM 46.4°F8.0°C 43.6°F6.4°C 90% 3.1 mph SE5.0 kmh SE 13.6 mph21.9 kmh 30.38 in1028.8 mb 0.00 in0.0 mm 0.00 in0.0 mm 0.00 in0.0 mm
12:48 AM 46.8°F8.2°C 44.0°F6.7°C 90% 3.1 mph W5.0 kmh W 5.4 mph8.7 kmh 30.37 in1028.4 mb 0.00 in0.0 mm 0.00 in0.0 mm 0.00 in0.0 mm
12:58 AM 46.8°F8.2°C 44.0°F6.7°C 90% 6.9 mph S11.1 kmh S 9.2 mph14.8 kmh 30.37 in1028.4 mb 0.00 in0.0 mm 0.00 in0.0 mm 0.00 in0.0 mm
01:08 AM 46.0°F7.8°C 43.6°F6.4°C 91% 4.5 mph SE7.2 kmh SE 13.6 mph21.9 kmh 30.37 in1028.4 mb 0.00 in0.0 mm 0.00 in0.0 mm 0.00 in0.0 mm
01:18 AM 46.0°F7.8°C 43.6°F6.4°C 91% 2.2 mph S3.5 kmh S 13.6 mph21.9 kmh 30.37 in1028.4 mb 0.00 in0.0 mm 0.00 in0.0 mm 0.00 in0.0 mm
01:28 AM 46.2°F7.9°C 44.0°F6.7°C 92% 5.4 mph E8.7 kmh E 10.7 mph17.2 kmh 30.36 in1028.1 mb 0.00 in0.0 mm 0.00 in0.0 mm 0.00 in0.0 mm
01:38 AM 45.5°F7.5°C 43.3°F6.3°C 92% 4.5 mph SE7.2 kmh SE 10.7 mph17.2 kmh 30.36 in1028.1 mb 0.00 in0.0 mm 0.00 in0.0 mm 0.00 in0.0 mm
01:48 AM 46.4°F8.0°C 44.5°F6.9°C 93% 0.7 mph S1.1 kmh S 7.6 mph12.2 kmh 30.36 in1028.1 mb 0.00 in0.0 mm 0.00 in0.0 mm 0.00 in0.0 mm
01:58 AM 45.1°F7.3°C 43.5°F6.4°C 94% 4.5 mph SE7.2 kmh SE 9.8 mph15.8 kmh 30.36 in1028.1 mb 0.00 in0.0 mm 0.00 in0.0 mm 0.00 in0.0 mm
02:08 AM 45.7°F7.6°C 44.3°F6.8°C 95% 2.2 mph S3.5 kmh S 9.8 mph15.8 kmh 30.36 in1028.1 mb 0.00 in0.0 mm 0.00 in0.0 mm 0.00 in0.0 mm
02:18 AM 45.7°F7.6°C 44.6°F7.0°C 96% 3.8 mph E6.1 kmh E 7.6 mph12.2 kmh 30.35 in1027.8 mb 0.00 in0.0 mm 0.00 in0.0 mm 0.00 in0.0 mm
02:28 AM 45.7°F7.6°C 44.9°F7.2°C 97% 6.9 mph SE11.1 kmh SE 9.8 mph15.8 kmh 30.35 in1027.8 mb 0.00 in0.0 mm 0.00 in0.0 mm 0.00 in0.0 mm
02:38 AM 45.3°F7.4°C 44.8°F7.1°C 98% 4.5 mph SE7.2 kmh SE 9.8 mph15.8 kmh 30.35 in1027.8 mb 0.00 in0.0 mm 0.00 in0.0 mm 0.00 in0.0 mm
02:48 AM 45.9°F7.7°C 45.6°F7.6°C 99% 3.8 mph SE6.1 kmh SE 7.6 mph12.2 kmh 30.34 in1027.4 mb 0.00 in0.0 mm 0.00 in0.0 mm 0.00 in0.0 mm
02:58 AM 45.9°F7.7°C 45.6°F7.6°C 99% 4.5 mph SW7.2 kmh SW 6.9 mph11.1 kmh 30.35 in1027.8 mb 0.00 in0.0 mm 0.00 in0.0 mm 0.00 in0.0 mm
03:08 AM 45.0°F7.2°C 44.7°F7.1°C 99% 3.8 mph SE6.1 kmh SE 6.9 mph11.1 kmh 30.34 in1027.4 mb 0.00 in0.0 mm 0.00 in0.0 mm 0.00 in0.0 mm
03:18 AM 46.4°F8.0°C 46.1°F7.8°C 99% 3.8 mph S6.1 kmh S 6.0 mph9.7 kmh 30.34 in1027.4 mb 0.00 in0.0 mm 0.00 in0.0 mm 0.00 in0.0 mm
03:28 AM 45.3°F7.4°C 45.1°F7.3°C 99% 3.1 mph E5.0 kmh E 6.0 mph9.7 kmh 30.34 in1027.4 mb 0.00 in0.0 mm 0.00 in0.0 mm 0.00 in0.0 mm
03:38 AM 46.2°F7.9°C 46.0°F7.8°C 99% 3.1 mph S5.0 kmh S 5.4 mph8.7 kmh 30.34 in1027.4 mb 0.00 in0.0 mm 0.00 in0.0 mm 0.00 in0.0 mm
03:48 AM 46.0°F7.8°C 45.8°F7.7°C 99% 5.4 mph E8.7 kmh E 9.2 mph14.8 kmh 30.34 in1027.4 mb 0.00 in0.0 mm 0.00 in0.0 mm 0.00 in0.0 mm
03:58 AM 46.2°F7.9°C 46.0°F7.8°C 99% 7.6 mph E12.2 kmh E 12.1 mph19.5 kmh 30.34 in1027.4 mb 0.00 in0.0 mm 0.00 in0.0 mm 0.00 in0.0 mm
04:08 AM 46.6°F8.1°C 46.3°F7.9°C 99% 6.0 mph NW9.7 kmh NW 12.1 mph19.5 kmh 30.34 in1027.4 mb 0.00 in0.0 mm 0.00 in0.0 mm 0.00 in0.0 mm
04:18 AM 46.9°F8.3°C 46.7°F8.2°C 99% 5.4 mph SE8.7 kmh SE 10.7 mph17.2 kmh 30.34 in1027.4 mb 0.00 in0.0 mm 0.00 in0.0 mm 0.00 in0.0 mm
04:28 AM 46.8°F8.2°C 46.5°F8.1°C 99% 6.9 mph SE11.1 kmh SE 10.7 mph17.2 kmh 30.32 in1026.8 mb 0.00 in0.0 mm 0.00 in0.0 mm 0.00 in0.0 mm
04:38 AM 47.5°F8.6°C 47.2°F8.4°C 99% 3.1 mph SE5.0 kmh SE 10.7 mph17.2 kmh 30.32 in1026.8 mb 0.00 in0.0 mm 0.00 in0.0 mm 0.00 in0.0 mm
04:48 AM 47.1°F8.4°C 46.9°F8.3°C 99% 3.1 mph SE5.0 kmh SE 6.9 mph11.1 kmh 30.32 in1026.8 mb 0.00 in0.0 mm 0.00 in0.0 mm 0.00 in0.0 mm
04:58 AM 47.1°F8.4°C 46.9°F8.3°C 99% 4.5 mph SW7.2 kmh SW 6.9 mph11.1 kmh 30.32 in1026.8 mb 0.00 in0.0 mm 0.00 in0.0 mm 0.00 in0.0 mm
05:08 AM 47.3°F8.5°C 47.0°F8.3°C 99% 2.2 mph SE3.5 kmh SE 6.9 mph11.1 kmh 30.32 in1026.8 mb 0.00 in0.0 mm 0.00 in0.0 mm 0.00 in0.0 mm
05:18 AM 47.5°F8.6°C 47.2°F8.4°C 99% 2.2 mph SE3.5 kmh SE 5.4 mph8.7 kmh 30.32 in1026.8 mb 0.00 in0.0 mm 0.00 in0.0 mm 0.00 in0.0 mm
05:28 AM 47.3°F8.5°C 47.0°F8.3°C 99% 3.1 mph SE5.0 kmh SE 5.4 mph8.7 kmh 30.32 in1026.8 mb 0.00 in0.0 mm 0.00 in0.0 mm 0.00 in0.0 mm
05:38 AM 47.3°F8.5°C 47.0°F8.3°C 99% 4.5 mph E7.2 kmh E 8.3 mph13.4 kmh 30.32 in1026.8 mb 0.00 in0.0 mm 0.00 in0.0 mm 0.00 in0.0 mm
05:48 AM 47.7°F8.7°C 47.4°F8.6°C 99% 1.6 mph S2.6 kmh S 8.3 mph13.4 kmh 30.31 in1026.4 mb 0.00 in0.0 mm 0.00 in0.0 mm 0.00 in0.0 mm
05:58 AM 47.3°F8.5°C 47.0°F8.3°C 99% 3.8 mph S6.1 kmh S 6.9 mph11.1 kmh 30.31 in1026.4 mb 0.00 in0.0 mm 0.00 in0.0 mm 0.00 in0.0 mm
06:08 AM 47.5°F8.6°C 47.2°F8.4°C 99% 4.5 mph S7.2 kmh S 7.6 mph12.2 kmh 30.31 in1026.4 mb 0.00 in0.0 mm 0.00 in0.0 mm 0.00 in0.0 mm
06:18 AM 47.5°F8.6°C 47.2°F8.4°C 99% 2.2 mph S3.5 kmh S 7.6 mph12.2 kmh 30.31 in1026.4 mb 0.00 in0.0 mm 0.00 in0.0 mm 0.00 in0.0 mm
06:28 AM 47.7°F8.7°C 47.4°F8.6°C 99% 5.4 mph E8.7 kmh E 8.3 mph13.4 kmh 30.31 in1026.4 mb 0.00 in0.0 mm 0.00 in0.0 mm 0.00 in0.0 mm
06:38 AM 48.0°F8.9°C 47.8°F8.8°C 99% 1.6 mph SE2.6 kmh SE 8.3 mph13.4 kmh 30.31 in1026.4 mb 0.00 in0.0 mm 0.00 in0.0 mm 0.00 in0.0 mm
06:48 AM 48.0°F8.9°C 47.8°F8.8°C 99% 3.1 mph SE5.0 kmh SE 6.0 mph9.7 kmh 30.31 in1026.4 mb 0.00 in0.0 mm 0.00 in0.0 mm 0.00 in0.0 mm
06:58 AM 48.6°F9.2°C 48.3°F9.1°C 99% 5.4 mph S8.7 kmh S 9.2 mph14.8 kmh 30.30 in1026.1 mb 0.00 in0.0 mm 0.00 in0.0 mm 0.00 in0.0 mm
07:20 AM 48.7°F9.3°C 48.5°F9.2°C 99% 3.1 mph ESE5.0 kmh ESE 16.8 mph27.0 kmh 30.30 in1026.1 mb 0.00 in0.0 mm 0.00 in0.0 mm 0.00 in0.0 mm
07:40 AM 49.5°F9.7°C 49.2°F9.6°C 99% 4.5 mph SE7.2 kmh SE 13.0 mph20.9 kmh 30.30 in1026.1 mb 0.00 in0.0 mm 0.00 in0.0 mm 0.00 in0.0 mm
08:00 AM 49.8°F9.9°C 49.6°F9.8°C 99% 4.5 mph SE7.2 kmh SE 14.5 mph23.3 kmh 30.30 in1026.1 mb 0.00 in0.0 mm 0.00 in0.0 mm 0.00 in0.0 mm
08:20 AM 50.0°F10.0°C 49.7°F9.8°C 99% 5.4 mph SE8.7 kmh SE 10.7 mph17.2 kmh 30.31 in1026.4 mb 0.00 in0.0 mm 0.00 in0.0 mm 0.00 in0.0 mm
08:40 AM 49.8°F9.9°C 49.6°F9.8°C 99% 5.4 mph SE8.7 kmh SE 15.2 mph24.5 kmh 30.30 in1026.1 mb 0.00 in0.0 mm 0.00 in0.0 mm 0.00 in0.0 mm
09:00 AM 50.5°F10.3°C 50.3°F10.2°C 99% 3.8 mph SE6.1 kmh SE 13.6 mph21.9 kmh 30.30 in1026.1 mb 0.00 in0.0 mm 0.00 in0.0 mm 0.00 in0.0 mm
09:20 AM 50.4°F10.2°C 50.1°F10.1°C 99% 7.6 mph SE12.2 kmh SE 16.8 mph27.0 kmh 30.29 in1025.7 mb 0.00 in0.0 mm 0.00 in0.0 mm 0.00 in0.0 mm
09:40 AM 51.3°F10.7°C 51.0°F10.6°C 99% 3.8 mph SE6.1 kmh SE 14.5 mph23.3 kmh 30.29 in1025.7 mb 0.00 in0.0 mm 0.00 in0.0 mm 0.00 in0.0 mm
10:00 AM 51.6°F10.9°C 51.3°F10.7°C 99% 3.8 mph SE6.1 kmh SE 13.6 mph21.9 kmh 30.29 in1025.7 mb 0.00 in0.0 mm 0.00 in0.0 mm 0.00 in0.0 mm
10:20 AM 53.2°F11.8°C 53.0°F11.7°C 99% 4.5 mph E7.2 kmh E 15.9 mph25.6 kmh 30.28 in1025.4 mb 0.00 in0.0 mm 0.00 in0.0 mm 0.00 in0.0 mm
10:40 AM 54.3°F12.4°C 54.0°F12.2°C 99% 10.7 mph ESE17.2 kmh ESE 14.5 mph23.3 kmh 30.27 in1025.1 mb 0.00 in0.0 mm 0.00 in0.0 mm 0.00 in0.0 mm
11:00 AM 53.6°F12.0°C 53.3°F11.8°C 99% 7.6 mph ESE12.2 kmh ESE 16.8 mph27.0 kmh 30.27 in1025.1 mb 0.00 in0.0 mm 0.00 in0.0 mm 0.00 in0.0 mm
11:20 AM 54.3°F12.4°C 53.8°F12.1°C 98% 9.2 mph SE14.8 kmh SE 15.9 mph25.6 kmh 30.25 in1024.4 mb 0.00 in0.0 mm 0.00 in0.0 mm 0.00 in0.0 mm
11:40 AM 55.9°F13.3°C 54.5°F12.5°C 95% 9.8 mph SE15.8 kmh SE 19.0 mph30.6 kmh 30.25 in1024.4 mb 0.00 in0.0 mm 0.00 in0.0 mm 0.00 in0.0 mm
12:00 PM 55.6°F13.1°C 53.6°F12.0°C 93% 8.3 mph E13.4 kmh E 18.3 mph29.5 kmh 30.22 in1023.4 mb 0.00 in0.0 mm 0.00 in0.0 mm 0.00 in0.0 mm
12:20 PM 55.8°F13.2°C 54.1°F12.3°C 94% 6.9 mph ESE11.1 kmh ESE 17.4 mph28.0 kmh 30.21 in1023.0 mb 0.00 in0.0 mm 0.00 in0.0 mm 0.00 in0.0 mm
12:40 PM 55.0°F12.8°C 53.3°F11.8°C 94% 7.6 mph ESE12.2 kmh ESE 19.0 mph30.6 kmh 30.19 in1022.4 mb 0.00 in0.0 mm 0.00 in0.0 mm 0.00 in0.0 mm
01:00 PM 55.9°F13.3°C 54.2°F12.3°C 94% 3.8 mph E6.1 kmh E 17.4 mph28.0 kmh 30.18 in1022.0 mb 0.00 in0.0 mm 0.00 in0.0 mm 0.00 in0.0 mm
01:20 PM 54.7°F12.6°C 53.6°F12.0°C 96% 9.2 mph SE14.8 kmh SE 15.9 mph25.6 kmh 30.16 in1021.3 mb 0.00 in0.0 mm 0.00 in0.0 mm 0.00 in0.0 mm
01:40 PM 55.9°F13.3°C 54.8°F12.7°C 96% 6.9 mph E11.1 kmh E 27.3 mph43.9 kmh 30.15 in1021.0 mb 0.00 in0.0 mm 0.00 in0.0 mm 0.00 in0.0 mm
02:00 PM 55.6°F13.1°C 54.7°F12.6°C 97% 9.2 mph ESE14.8 kmh ESE 15.9 mph25.6 kmh 30.13 in1020.3 mb 0.00 in0.0 mm 0.00 in0.0 mm 0.00 in0.0 mm
02:20 PM 56.7°F13.7°C 55.5°F13.1°C 96% 13.6 mph ESE21.9 kmh ESE 21.3 mph34.3 kmh 30.11 in1019.6 mb 0.00 in0.0 mm 0.00 in0.0 mm 0.00 in0.0 mm
02:40 PM 56.5°F13.6°C 55.4°F13.0°C 96% 7.6 mph ESE12.2 kmh ESE 19.7 mph31.7 kmh 30.11 in1019.6 mb 0.00 in0.0 mm 0.00 in0.0 mm 0.00 in0.0 mm
03:00 PM 56.7°F13.7°C 55.5°F13.1°C 96% 2.2 mph ESE3.5 kmh ESE 21.3 mph34.3 kmh 30.11 in1019.6 mb 0.00 in0.0 mm 0.00 in0.0 mm 0.00 in0.0 mm
03:20 PM 55.9°F13.3°C 55.4°F13.0°C 98% 3.8 mph SE6.1 kmh SE 13.0 mph20.9 kmh 30.12 in1020.0 mb 0.00 in0.0 mm 0.00 in0.0 mm 0.00 in0.0 mm
03:40 PM 56.3°F13.5°C 56.0°F13.3°C 99% 3.8 mph ESE6.1 kmh ESE 9.8 mph15.8 kmh 30.12 in1020.0 mb 0.00 in0.0 mm 0.00 in0.0 mm 0.00 in0.0 mm
04:00 PM 55.9°F13.3°C 55.7°F13.2°C 99% 3.8 mph SE6.1 kmh SE 9.2 mph14.8 kmh 30.12 in1020.0 mb 0.00 in0.0 mm 0.00 in0.0 mm 0.00 in0.0 mm
04:20 PM 55.9°F13.3°C 55.7°F13.2°C 99% 6.9 mph SE11.1 kmh SE 12.1 mph19.5 kmh 30.11 in1019.6 mb 0.00 in0.0 mm 0.00 in0.0 mm 0.00 in0.0 mm
04:40 PM 56.7°F13.7°C 56.4°F13.6°C 99% 6.9 mph SE11.1 kmh SE 19.0 mph30.6 kmh 30.09 in1019.0 mb 0.00 in0.0 mm 0.00 in0.0 mm 0.00 in0.0 mm
05:00 PM 56.1°F13.4°C 55.8°F13.2°C 99% 3.1 mph E5.0 kmh E 15.9 mph25.6 kmh 30.11 in1019.6 mb 0.00 in0.0 mm 0.00 in0.0 mm 0.00 in0.0 mm
05:20 PM 55.8°F13.2°C 55.5°F13.1°C 99% 6.0 mph SE9.7 kmh SE 13.0 mph20.9 kmh 30.11 in1019.6 mb 0.00 in0.0 mm 0.00 in0.0 mm 0.00 in0.0 mm
05:40 PM 55.6°F13.1°C 55.3°F12.9°C 99% 4.5 mph E7.2 kmh E 13.0 mph20.9 kmh 30.11 in1019.6 mb 0.00 in0.0 mm 0.00 in0.0 mm 0.00 in0.0 mm
06:00 PM 56.1°F13.4°C 55.8°F13.2°C 99% 4.5 mph SE7.2 kmh SE 10.7 mph17.2 kmh 30.10 in1019.3 mb 0.00 in0.0 mm 0.00 in0.0 mm 0.00 in0.0 mm
06:20 PM 55.6°F13.1°C 55.3°F12.9°C 99% 6.0 mph ESE9.7 kmh ESE 14.5 mph23.3 kmh 30.11 in1019.6 mb 0.00 in0.0 mm 0.00 in0.0 mm 0.00 in0.0 mm
06:40 PM 55.6°F13.1°C 55.3°F12.9°C 99% 3.1 mph SE5.0 kmh SE 11.4 mph18.3 kmh 30.11 in1019.6 mb 0.00 in0.0 mm 0.00 in0.0 mm 0.00 in0.0 mm
07:00 PM 54.7°F12.6°C 54.4°F12.4°C 99% 5.4 mph SE8.7 kmh SE 10.7 mph17.2 kmh 30.10 in1019.3 mb 0.00 in0.0 mm 0.00 in0.0 mm 0.00 in0.0 mm
07:20 PM 53.8°F12.1°C 53.5°F11.9°C 99% 5.4 mph SE8.7 kmh SE 10.7 mph17.2 kmh 30.10 in1019.3 mb 0.00 in0.0 mm 0.00 in0.0 mm 0.00 in0.0 mm
07:40 PM 53.6°F12.0°C 53.3°F11.8°C 99% 3.8 mph SE6.1 kmh SE 12.1 mph19.5 kmh 30.09 in1019.0 mb 0.00 in0.0 mm 0.00 in0.0 mm 0.00 in0.0 mm
08:00 PM 53.4°F11.9°C 53.1°F11.7°C 99% 6.0 mph SE9.7 kmh SE 13.6 mph21.9 kmh 30.09 in1019.0 mb 0.01 in0.3 mm 0.02 in0.5 mm 0.01 in0.3 mm
08:20 PM 54.0°F12.2°C 53.7°F12.1°C 99% 6.9 mph ESE11.1 kmh ESE 13.0 mph20.9 kmh 30.07 in1018.3 mb 0.01 in0.3 mm 0.00 in0.0 mm 0.01 in0.3 mm
08:40 PM 53.8°F12.1°C 53.5°F11.9°C 99% 6.9 mph SE11.1 kmh SE 9.8 mph15.8 kmh 30.07 in1018.3 mb 0.01 in0.3 mm 0.00 in0.0 mm 0.01 in0.3 mm
09:00 PM 54.0°F12.2°C 53.7°F12.1°C 99% 2.2 mph SE3.5 kmh SE 9.8 mph15.8 kmh 30.09 in1019.0 mb 0.00 in0.0 mm 0.00 in0.0 mm 0.01 in0.3 mm
09:20 PM 53.2°F11.8°C 53.0°F11.7°C 99% 3.1 mph SSE5.0 kmh SSE 7.6 mph12.2 kmh 30.08 in1018.6 mb 0.00 in0.0 mm 0.00 in0.0 mm 0.01 in0.3 mm
09:40 PM 53.2°F11.8°C 53.0°F11.7°C 99% 3.1 mph SE5.0 kmh SE 10.7 mph17.2 kmh 30.08 in1018.6 mb 0.00 in0.0 mm 0.00 in0.0 mm 0.01 in0.3 mm
10:00 PM 54.3°F12.4°C 54.0°F12.2°C 99% 1.6 mph SE2.6 kmh SE 9.2 mph14.8 kmh 30.07 in1018.3 mb 0.00 in0.0 mm 0.00 in0.0 mm 0.01 in0.3 mm
10:20 PM 53.2°F11.8°C 53.0°F11.7°C 99% 4.5 mph SE7.2 kmh SE 9.2 mph14.8 kmh 30.07 in1018.3 mb 0.01 in0.3 mm 0.03 in0.8 mm 0.02 in0.5 mm
10:40 PM 54.0°F12.2°C 53.7°F12.1°C 99% 4.5 mph SE7.2 kmh SE 10.7 mph17.2 kmh 30.06 in1017.9 mb 0.01 in0.3 mm 0.00 in0.0 mm 0.02 in0.5 mm
10:48 PM 53.2°F11.8°C 53.0°F11.7°C 99% 3.1 mph SE5.0 kmh SE 7.6 mph12.2 kmh 30.06 in1017.9 mb 0.01 in0.3 mm 0.00 in0.0 mm 0.02 in0.5 mm
10:58 PM 53.6°F12.0°C 53.3°F11.8°C 99% 3.8 mph SE6.1 kmh SE 5.4 mph8.7 kmh 30.06 in1017.9 mb 0.01 in0.3 mm 0.00 in0.0 mm 0.02 in0.5 mm
11:08 PM 54.1°F12.3°C 53.9°F12.2°C 99% 3.8 mph N6.1 kmh N 6.0 mph9.7 kmh 30.06 in1017.9 mb 0.01 in0.3 mm 0.00 in0.0 mm 0.02 in0.5 mm
11:18 PM 53.4°F11.9°C 53.1°F11.7°C 99% 1.6 mph SE2.6 kmh SE 6.0 mph9.7 kmh 30.07 in1018.3 mb 0.00 in0.0 mm 0.00 in0.0 mm 0.02 in0.5 mm
11:28 PM 53.8°F12.1°C 53.5°F11.9°C 99% 3.8 mph E6.1 kmh E 6.9 mph11.1 kmh 30.07 in1018.3 mb 0.00 in0.0 mm 0.00 in0.0 mm 0.02 in0.5 mm
11:38 PM 53.8°F12.1°C 53.5°F11.9°C 99% 3.1 mph E5.0 kmh E 6.9 mph11.1 kmh 30.08 in1018.6 mb 0.00 in0.0 mm 0.00 in0.0 mm 0.02 in0.5 mm
11:48 PM 53.8°F12.1°C 53.5°F11.9°C 99% 3.1 mph SE5.0 kmh SE 4.5 mph7.2 kmh 30.09 in1019.0 mb 0.00 in0.0 mm 0.00 in0.0 mm 0.02 in0.5 mm
11:58 PM 53.8°F12.1°C 53.5°F11.9°C 99% 0.7 mph S1.1 kmh S 4.5 mph7.2 kmh 30.09 in1019.0 mb 0.00 in0.0 mm 0.00 in0.0 mm 0.02 in0.5 mm